createdAt,value
2023-01-29T00:00:43.549Z,62.93
2023-01-29T00:02:14.904Z,62.49
2023-01-29T00:03:46.333Z,60.94
2023-01-29T00:05:27.425Z,62.41
2023-01-29T00:06:59.478Z,61.14
2023-01-29T00:08:30.956Z,61.96
2023-01-29T00:10:07.111Z,63.06
2023-01-29T00:11:48.477Z,61.36
2023-01-29T00:13:19.753Z,63.06
2023-01-29T00:14:51.028Z,64.29
2023-01-29T00:16:22.433Z,63.43
2023-01-29T00:17:53.956Z,63.75
2023-01-29T00:19:25.386Z,65.85
2023-01-29T00:20:58.039Z,64.45
2023-01-29T00:22:29.513Z,64.20
2023-01-29T00:24:00.714Z,66.71
2023-01-29T00:25:31.974Z,65.25
2023-01-29T00:27:03.121Z,66.33
2023-01-29T00:28:34.502Z,62.93
2023-01-29T00:30:05.957Z,63.68
2023-01-29T00:31:37.405Z,65.09
2023-01-29T00:33:08.933Z,63.28
2023-01-29T00:34:40.117Z,62.58
2023-01-29T00:36:16.537Z,63.12
2023-01-29T00:37:47.947Z,63.09
2023-01-29T00:39:19.425Z,62.11
2023-01-29T00:40:50.996Z,63.76
2023-01-29T00:42:22.190Z,62.69
2023-01-29T00:43:53.326Z,62.46
2023-01-29T00:45:24.582Z,62.19
2023-01-29T00:46:55.982Z,62.08
2023-01-29T00:48:27.245Z,62.35
2023-01-29T00:49:59.011Z,64.19
2023-01-29T00:51:30.377Z,64.72
2023-01-29T00:53:01.764Z,66.45
2023-01-29T00:54:33.271Z,63.88
2023-01-29T00:56:04.990Z,63.04
2023-01-29T00:57:36.574Z,65.46
2023-01-29T00:59:07.832Z,68.65
2023-01-29T01:00:44.356Z,64.49
2023-01-29T01:02:15.853Z,68.43
2023-01-29T01:03:47.237Z,67.56
2023-01-29T01:05:18.496Z,69.75
2023-01-29T01:06:50.276Z,65.59
2023-01-29T01:08:21.823Z,65.61
2023-01-29T01:09:53.103Z,65.50
2023-01-29T01:11:24.458Z,64.65
2023-01-29T01:12:55.813Z,66.17
2023-01-29T01:14:27.080Z,67.18
2023-01-29T01:15:58.348Z,68.34
2023-01-29T01:17:29.722Z,66.85
2023-01-29T01:19:01.301Z,64.32
2023-01-29T01:20:32.793Z,61.43
2023-01-29T01:22:04.346Z,63.35
2023-01-29T01:23:35.878Z,65.36
2023-01-29T01:25:12.100Z,63.70
2023-01-29T01:26:43.898Z,62.89
2023-01-29T01:28:15.108Z,65.28
2023-01-29T01:29:46.456Z,65.10
2023-01-29T01:31:17.709Z,65.40
2023-01-29T01:32:48.935Z,67.50
2023-01-29T01:34:20.203Z,66.83
2023-01-29T01:35:51.881Z,65.84
2023-01-29T01:37:23.140Z,66.64
2023-01-29T01:38:54.800Z,65.09
2023-01-29T01:40:25.963Z,68.66
2023-01-29T01:41:57.145Z,68.93
2023-01-29T01:43:28.424Z,69.65
2023-01-29T01:44:59.754Z,67.62
2023-01-29T01:46:31.318Z,68.38
2023-01-29T01:48:02.616Z,70.73
2023-01-29T01:49:33.903Z,67.24
2023-01-29T01:51:05.186Z,70.12
2023-01-29T01:52:36.346Z,68.76
2023-01-29T01:54:07.600Z,66.55
2023-01-29T01:55:38.893Z,68.79
2023-01-29T01:57:15.504Z,68.99
2023-01-29T01:58:46.877Z,67.71
2023-01-29T02:00:18.582Z,67.99
2023-01-29T02:01:50.046Z,67.09
2023-01-29T02:03:21.685Z,67.49
2023-01-29T02:04:53.155Z,68.76
2023-01-29T02:06:24.616Z,69.19
2023-01-29T02:07:56.008Z,71.10
2023-01-29T02:09:27.398Z,71.80
2023-01-29T02:10:58.966Z,68.11
2023-01-29T02:12:30.749Z,70.53
2023-01-29T02:14:02.054Z,71.56
2023-01-29T02:15:33.405Z,68.24
2023-01-29T02:17:04.967Z,68.53
2023-01-29T02:18:36.886Z,70.80
2023-01-29T02:20:08.911Z,67.16
2023-01-29T02:21:40.579Z,68.78
2023-01-29T02:23:11.992Z,71.41
2023-01-29T02:24:43.534Z,68.36
2023-01-29T02:26:15.249Z,71.70
2023-01-29T02:27:46.539Z,70.40
2023-01-29T02:29:17.795Z,69.26
2023-01-29T02:30:49.520Z,68.02
2023-01-29T02:32:20.934Z,67.84
2023-01-29T02:33:52.252Z,67.35
2023-01-29T02:35:23.450Z,70.20
2023-01-29T02:36:54.988Z,67.09
2023-01-29T02:38:26.389Z,68.62
2023-01-29T02:39:57.778Z,71.03
2023-01-29T02:41:29.396Z,69.88
2023-01-29T02:43:05.817Z,69.70
2023-01-29T02:44:37.088Z,67.49
2023-01-29T02:46:08.480Z,69.03
2023-01-29T02:47:39.962Z,69.06
2023-01-29T02:49:11.521Z,68.40
2023-01-29T02:50:42.794Z,68.27
2023-01-29T02:52:14.060Z,69.68
2023-01-29T02:53:45.446Z,69.71
2023-01-29T02:55:16.923Z,69.73
2023-01-29T02:56:48.282Z,70.97
2023-01-29T02:58:19.547Z,68.93
2023-01-29T02:59:50.821Z,70.15
2023-01-29T03:01:22.224Z,71.13
2023-01-29T03:02:53.371Z,71.11
2023-01-29T03:04:24.723Z,69.38
2023-01-29T03:05:56.262Z,69.00
2023-01-29T03:07:27.450Z,69.41
2023-01-29T03:08:59.666Z,71.36
2023-01-29T03:10:31.118Z,70.47
2023-01-29T03:12:02.260Z,73.02
2023-01-29T03:13:33.522Z,72.84
2023-01-29T03:15:04.872Z,71.90
2023-01-29T03:16:36.255Z,71.51
2023-01-29T03:18:07.625Z,72.98
2023-01-29T03:19:38.829Z,72.19
2023-01-29T03:21:10.304Z,72.35
2023-01-29T03:22:41.511Z,72.60
2023-01-29T03:24:12.705Z,72.27
2023-01-29T03:25:43.859Z,72.94
2023-01-29T03:27:15.206Z,75.13
2023-01-29T03:28:46.389Z,75.15
2023-01-29T03:30:18.211Z,75.46
2023-01-29T03:31:49.760Z,76.86
2023-01-29T03:33:21.137Z,75.84
2023-01-29T03:34:52.676Z,75.19
2023-01-29T03:36:24.296Z,77.68
2023-01-29T03:37:55.868Z,77.21
2023-01-29T03:39:27.713Z,78.06
2023-01-29T03:40:59.327Z,76.09
2023-01-29T03:42:31.088Z,74.22
2023-01-29T03:44:02.439Z,77.15
2023-01-29T03:45:33.567Z,75.01
2023-01-29T03:47:04.991Z,76.54
2023-01-29T03:48:36.347Z,76.87
2023-01-29T03:50:12.849Z,80.14
2023-01-29T03:51:44.234Z,80.32
2023-01-29T03:53:15.552Z,84.39
2023-01-29T03:54:46.943Z,81.07
2023-01-29T03:56:18.301Z,82.34
2023-01-29T03:57:50.044Z,82.11
2023-01-29T03:59:21.501Z,84.71
2023-01-29T04:00:52.794Z,85.25
2023-01-29T04:02:23.986Z,86.70
2023-01-29T04:03:55.532Z,86.65
2023-01-29T04:05:26.965Z,87.03
2023-01-29T04:06:59.094Z,82.39
2023-01-29T04:08:30.940Z,88.18
2023-01-29T04:10:02.309Z,85.11
2023-01-29T04:11:33.579Z,87.67
2023-01-29T04:13:04.997Z,88.35
2023-01-29T04:14:36.567Z,87.66
2023-01-29T04:16:07.735Z,81.60
2023-01-29T04:17:39.182Z,84.34
2023-01-29T04:19:10.305Z,88.28
2023-01-29T04:20:41.663Z,82.35
2023-01-29T04:22:13.277Z,79.54
2023-01-29T04:23:44.775Z,80.34
2023-01-29T04:25:16.155Z,77.67
2023-01-29T04:26:47.475Z,88.16
2023-01-29T04:28:19.246Z,85.67
2023-01-29T04:29:50.718Z,88.37
2023-01-29T04:31:27.398Z,89.18
2023-01-29T04:32:58.968Z,89.55
2023-01-29T04:34:31.215Z,84.91
2023-01-29T04:36:02.750Z,87.55
2023-01-29T04:37:34.099Z,85.91
2023-01-29T04:39:05.539Z,89.09
2023-01-29T04:40:36.924Z,88.90
2023-01-29T04:42:08.477Z,85.71
2023-01-29T04:43:39.693Z,89.21
2023-01-29T04:45:11.054Z,87.40
2023-01-29T04:46:42.388Z,88.56
2023-01-29T04:48:13.545Z,86.01
2023-01-29T04:49:44.751Z,85.00
2023-01-29T04:51:16.255Z,86.30
2023-01-29T04:52:47.604Z,85.48
2023-01-29T04:54:18.989Z,86.87
2023-01-29T04:55:50.190Z,84.88
2023-01-29T04:57:21.422Z,85.52
2023-01-29T04:58:52.582Z,84.64
2023-01-29T05:00:23.825Z,85.72
2023-01-29T05:01:55.445Z,86.63
2023-01-29T05:03:26.683Z,87.50
2023-01-29T05:04:58.183Z,90.52
2023-01-29T05:06:29.429Z,86.62
2023-01-29T05:08:01.000Z,85.25
2023-01-29T05:09:32.585Z,84.19
2023-01-29T05:11:04.252Z,85.65
2023-01-29T05:12:35.575Z,85.63
2023-01-29T05:14:07.201Z,85.58
2023-01-29T05:15:38.537Z,85.78
2023-01-29T05:17:11.082Z,79.05
2023-01-29T05:18:42.730Z,83.89
2023-01-29T05:20:14.445Z,85.60
2023-01-29T05:21:46.043Z,81.18
2023-01-29T05:23:17.736Z,79.32
2023-01-29T05:24:49.161Z,81.88
2023-01-29T05:26:20.453Z,83.55
2023-01-29T05:27:51.802Z,81.29
2023-01-29T05:29:23.653Z,79.53
2023-01-29T05:30:54.842Z,80.84
2023-01-29T05:32:26.265Z,76.94
2023-01-29T05:33:57.456Z,78.19
2023-01-29T05:35:28.641Z,74.08
2023-01-29T05:36:59.913Z,81.27
2023-01-29T05:38:31.287Z,75.77
2023-01-29T05:40:02.508Z,84.18
2023-01-29T05:41:33.750Z,84.78
2023-01-29T05:43:05.539Z,82.09
2023-01-29T05:44:37.038Z,82.71
2023-01-29T05:46:08.623Z,82.52
2023-01-29T05:47:40.442Z,77.58
2023-01-29T05:49:16.843Z,75.74
2023-01-29T05:50:47.996Z,71.87
2023-01-29T05:52:19.279Z,73.95
2023-01-29T05:53:50.568Z,77.41
2023-01-29T05:55:21.765Z,73.22
2023-01-29T05:56:54.202Z,75.25
2023-01-29T05:58:25.487Z,75.53
2023-01-29T05:59:56.936Z,74.21
2023-01-29T06:01:28.227Z,71.39
2023-01-29T06:02:59.731Z,73.23
2023-01-29T06:04:31.061Z,66.49
2023-01-29T06:06:02.441Z,68.33
2023-01-29T06:07:33.748Z,68.87
2023-01-29T06:09:05.144Z,72.23
2023-01-29T06:10:36.571Z,71.54
2023-01-29T06:12:07.855Z,71.39
2023-01-29T06:13:39.051Z,67.84
2023-01-29T06:15:10.461Z,70.85
2023-01-29T06:16:41.764Z,70.46
2023-01-29T06:18:13.030Z,72.41
2023-01-29T06:19:44.394Z,72.22
2023-01-29T06:21:16.960Z,72.06
2023-01-29T06:22:49.975Z,70.75
2023-01-29T06:24:21.306Z,71.02
2023-01-29T06:25:52.881Z,72.89
2023-01-29T06:27:24.165Z,71.71
2023-01-29T06:28:55.553Z,70.49
2023-01-29T06:30:26.724Z,70.60
2023-01-29T06:31:58.003Z,69.26
2023-01-29T06:33:29.296Z,68.43
2023-01-29T06:35:00.680Z,69.24
2023-01-29T06:36:32.117Z,69.78
2023-01-29T06:38:03.718Z,72.43
2023-01-29T06:39:35.300Z,71.93
2023-01-29T06:41:06.865Z,67.89
2023-01-29T06:42:38.156Z,69.24
2023-01-29T06:44:09.826Z,67.31
2023-01-29T06:45:41.200Z,67.54
2023-01-29T06:47:12.456Z,67.06
2023-01-29T06:48:43.666Z,68.74
2023-01-29T06:50:15.530Z,69.24
2023-01-29T06:51:47.057Z,67.92
2023-01-29T06:53:18.299Z,68.42
2023-01-29T06:54:49.484Z,67.10
2023-01-29T06:56:20.764Z,64.89
2023-01-29T06:57:52.205Z,66.80
2023-01-29T06:59:23.944Z,66.83
2023-01-29T07:00:55.459Z,67.12
2023-01-29T07:02:26.917Z,66.23
2023-01-29T07:03:58.192Z,66.39
2023-01-29T07:05:29.486Z,65.81
2023-01-29T07:07:01.150Z,68.14
2023-01-29T07:08:32.493Z,66.98
2023-01-29T07:10:03.792Z,69.92
2023-01-29T07:11:35.091Z,67.10
2023-01-29T07:13:06.378Z,75.08
2023-01-29T07:14:37.874Z,72.29
2023-01-29T07:16:09.280Z,69.91
2023-01-29T07:17:40.431Z,67.37
2023-01-29T07:19:11.677Z,66.91
2023-01-29T07:20:43.268Z,65.88
2023-01-29T07:22:14.610Z,67.56
2023-01-29T07:23:51.093Z,64.02
2023-01-29T07:25:22.231Z,66.97
2023-01-29T07:26:53.634Z,64.29
2023-01-29T07:28:24.890Z,64.34
2023-01-29T07:29:56.201Z,63.10
2023-01-29T07:31:27.689Z,65.60
2023-01-29T07:32:59.197Z,64.64
2023-01-29T07:34:30.343Z,65.79
2023-01-29T07:36:01.734Z,68.81
2023-01-29T07:37:33.010Z,66.10
2023-01-29T07:39:04.325Z,67.26
2023-01-29T07:40:58.310Z,64.29
2023-01-29T07:42:29.746Z,67.30
2023-01-29T07:44:01.708Z,63.97
2023-01-29T07:45:33.493Z,64.76
2023-01-29T07:47:05.504Z,64.80
2023-01-29T07:48:36.851Z,63.22
2023-01-29T07:50:08.149Z,58.82
2023-01-29T07:51:39.547Z,57.69
2023-01-29T07:53:15.854Z,62.53
2023-01-29T07:54:47.220Z,64.56
2023-01-29T07:56:18.516Z,62.40
2023-01-29T07:57:49.685Z,62.60
2023-01-29T07:59:20.996Z,62.20
2023-01-29T08:00:52.216Z,63.32
2023-01-29T08:02:23.560Z,59.57
2023-01-29T08:03:54.913Z,64.42
2023-01-29T08:05:26.212Z,66.38
2023-01-29T08:06:57.394Z,60.84
2023-01-29T08:08:28.787Z,62.66
2023-01-29T08:10:00.125Z,64.61
2023-01-29T08:11:31.312Z,63.46
2023-01-29T08:13:02.493Z,65.33
2023-01-29T08:14:33.684Z,62.15
2023-01-29T08:16:05.052Z,60.47
2023-01-29T08:17:43.347Z,62.36
2023-01-29T08:19:20.683Z,60.99
2023-01-29T08:20:52.900Z,62.95
2023-01-29T08:22:24.194Z,64.18
2023-01-29T08:23:55.695Z,64.24
2023-01-29T08:25:27.519Z,64.46
2023-01-29T08:26:58.915Z,64.52
2023-01-29T08:28:30.200Z,65.56
2023-01-29T08:30:01.715Z,64.69
2023-01-29T08:31:33.003Z,62.66
2023-01-29T08:33:04.246Z,63.35
2023-01-29T08:34:35.610Z,64.54
2023-01-29T08:36:07.008Z,63.57
2023-01-29T08:37:38.459Z,66.31
2023-01-29T08:39:09.734Z,65.10
2023-01-29T08:40:41.240Z,64.83
2023-01-29T08:42:12.626Z,63.77
2023-01-29T08:43:44.417Z,64.00
2023-01-29T08:45:15.642Z,64.36
2023-01-29T08:46:47.129Z,59.71
2023-01-29T08:48:18.630Z,63.91
2023-01-29T08:49:49.937Z,67.03
2023-01-29T08:51:21.268Z,63.99
2023-01-29T08:52:52.519Z,65.36
2023-01-29T08:54:23.721Z,64.07
2023-01-29T08:55:55.005Z,65.14
2023-01-29T08:57:26.346Z,65.52
2023-01-29T08:58:58.411Z,64.79
2023-01-29T09:00:30.392Z,65.68
2023-01-29T09:02:01.709Z,65.00
2023-01-29T09:03:33.075Z,64.73
2023-01-29T09:05:05.067Z,65.97
2023-01-29T09:06:36.615Z,63.53
2023-01-29T09:08:07.761Z,61.87
2023-01-29T09:09:39.083Z,63.86
2023-01-29T09:11:10.375Z,63.57
2023-01-29T09:12:41.700Z,65.39
2023-01-29T09:14:12.888Z,63.47
2023-01-29T09:15:44.206Z,61.89
2023-01-29T09:17:15.731Z,53.88
2023-01-29T09:18:47.076Z,62.05
2023-01-29T09:20:18.395Z,65.74
2023-01-29T09:21:50.000Z,63.66
2023-01-29T09:23:21.293Z,64.29
2023-01-29T09:24:52.503Z,67.10
2023-01-29T09:26:24.126Z,63.57
2023-01-29T09:27:55.369Z,60.17
2023-01-29T09:29:26.654Z,63.97
2023-01-29T09:30:58.130Z,67.41
2023-01-29T09:32:52.725Z,70.99
2023-01-29T09:34:25.174Z,66.78
2023-01-29T09:35:57.151Z,62.13
2023-01-29T09:37:43.766Z,64.46
2023-01-29T09:39:40.661Z,65.84
2023-01-29T09:43:18.649Z,69.79
2023-01-29T09:44:50.515Z,64.60
2023-01-29T09:46:22.212Z,64.19
2023-01-29T09:47:54.501Z,67.90
2023-01-29T09:49:48.471Z,60.95
2023-01-29T09:51:20.498Z,62.38
2023-01-29T09:52:51.956Z,67.07
2023-01-29T09:54:23.827Z,67.28
2023-01-29T09:55:55.659Z,67.52
2023-01-29T09:57:27.386Z,66.91
2023-01-29T09:59:01.569Z,65.97
2023-01-29T10:00:33.436Z,69.10
2023-01-29T10:02:10.053Z,64.94
2023-01-29T10:03:42.044Z,63.01
2023-01-29T10:05:14.306Z,61.00
2023-01-29T10:06:46.514Z,64.64
2023-01-29T10:08:17.971Z,65.89
2023-01-29T10:11:44.184Z,63.65
2023-01-29T10:13:32.318Z,62.60
2023-01-29T10:15:03.877Z,64.85
2023-01-29T10:17:14.978Z,63.23
2023-01-29T10:18:46.862Z,63.16
2023-01-29T10:20:18.569Z,67.62
2023-01-29T10:21:50.427Z,64.13
2023-01-29T10:25:15.618Z,63.85
2023-01-29T10:26:47.373Z,67.74
2023-01-29T10:28:18.889Z,66.48
2023-01-29T10:30:21.253Z,64.14
2023-01-29T10:31:53.405Z,64.58
2023-01-29T10:33:24.785Z,62.22
2023-01-29T10:34:56.313Z,59.94
2023-01-29T10:36:53.357Z,66.24
2023-01-29T10:38:25.097Z,64.20
2023-01-29T10:39:57.318Z,61.90
2023-01-29T10:41:28.637Z,62.83
2023-01-29T10:43:41.231Z,65.40
2023-01-29T10:45:13.669Z,62.17
2023-01-29T10:46:45.352Z,57.74
2023-01-29T10:48:16.934Z,59.80
2023-01-29T10:50:16.369Z,66.24
2023-01-29T10:51:49.664Z,66.89
2023-01-29T10:53:50.494Z,59.81
2023-01-29T10:55:22.114Z,62.45
2023-01-29T10:56:53.924Z,65.60
2023-01-29T10:58:25.607Z,65.39
2023-01-29T10:59:56.922Z,63.91
2023-01-29T11:01:28.287Z,60.66
2023-01-29T11:02:59.796Z,64.86
2023-01-29T11:04:31.144Z,62.02
2023-01-29T11:06:02.350Z,60.48
2023-01-29T11:07:33.708Z,63.49
2023-01-29T11:09:04.970Z,57.60
2023-01-29T11:10:36.464Z,58.34
2023-01-29T11:12:12.854Z,63.62
2023-01-29T11:13:44.466Z,63.24
2023-01-29T11:15:15.793Z,65.49
2023-01-29T11:16:47.213Z,64.45
2023-01-29T11:18:18.808Z,63.92
2023-01-29T11:19:50.104Z,65.47
2023-01-29T11:21:22.536Z,63.01
2023-01-29T11:22:54.277Z,62.24
2023-01-29T11:24:25.791Z,63.15
2023-01-29T11:25:57.296Z,64.53
2023-01-29T11:27:28.784Z,67.95
2023-01-29T11:29:00.597Z,63.49
2023-01-29T11:30:32.050Z,67.59
2023-01-29T11:32:08.503Z,65.94
2023-01-29T11:33:40.049Z,67.61
2023-01-29T11:35:11.808Z,67.81
2023-01-29T11:36:43.040Z,67.44
2023-01-29T11:38:14.374Z,65.27
2023-01-29T11:39:45.600Z,61.08
2023-01-29T11:41:17.015Z,63.19
2023-01-29T11:42:48.552Z,64.62
2023-01-29T11:44:19.826Z,63.47
2023-01-29T11:45:56.285Z,60.64
2023-01-29T11:47:27.619Z,65.72
2023-01-29T11:49:05.845Z,65.22
2023-01-29T11:50:45.774Z,62.53
2023-01-29T11:52:16.956Z,62.26
2023-01-29T11:53:53.236Z,61.33
2023-01-29T11:55:24.676Z,63.45
2023-01-29T11:56:56.131Z,60.53
2023-01-29T11:58:27.435Z,63.18
2023-01-29T11:59:58.784Z,63.71
2023-01-29T12:01:30.085Z,63.51
2023-01-29T12:03:01.427Z,61.12
2023-01-29T12:04:32.668Z,62.68
2023-01-29T12:06:04.064Z,63.11
2023-01-29T12:07:35.400Z,59.44
2023-01-29T12:09:06.644Z,59.11
2023-01-29T12:10:38.249Z,58.65
2023-01-29T12:12:09.640Z,59.02
2023-01-29T12:13:42.209Z,60.23
2023-01-29T12:15:13.602Z,61.07
2023-01-29T12:16:44.972Z,59.14
2023-01-29T12:18:16.191Z,59.84
2023-01-29T12:19:47.784Z,58.02
2023-01-29T12:21:19.180Z,60.34
2023-01-29T12:22:50.888Z,59.38
2023-01-29T12:24:22.371Z,60.76
2023-01-29T12:25:54.064Z,55.91
2023-01-29T12:27:25.326Z,56.57
2023-01-29T12:28:56.850Z,59.86
2023-01-29T12:30:28.353Z,57.73
2023-01-29T12:31:59.826Z,57.84
2023-01-29T12:35:27.317Z,58.18
2023-01-29T12:36:58.558Z,59.12
2023-01-29T12:38:29.800Z,59.16
2023-01-29T12:40:01.009Z,57.63
2023-01-29T12:41:32.421Z,57.29
2023-01-29T12:43:03.806Z,55.62
2023-01-29T12:44:40.310Z,57.34
2023-01-29T12:46:11.545Z,56.36
2023-01-29T12:47:42.801Z,58.95
2023-01-29T12:49:14.229Z,51.91
2023-01-29T12:50:45.549Z,57.84
2023-01-29T12:52:16.863Z,56.84
2023-01-29T12:53:48.205Z,56.12
2023-01-29T12:55:19.590Z,57.19
2023-01-29T12:56:50.830Z,58.95
2023-01-29T12:58:22.126Z,53.67
2023-01-29T12:59:53.587Z,56.84
2023-01-29T13:01:24.884Z,54.80
2023-01-29T13:02:56.327Z,53.75
2023-01-29T13:04:28.313Z,50.22
2023-01-29T13:05:59.722Z,54.42
2023-01-29T13:07:31.215Z,57.35
2023-01-29T13:09:02.503Z,55.92
2023-01-29T13:10:33.664Z,54.99
2023-01-29T13:12:33.237Z,52.95
2023-01-29T13:14:05.601Z,54.54
2023-01-29T13:15:37.061Z,54.59
2023-01-29T13:17:08.424Z,52.12
2023-01-29T13:18:39.943Z,49.94
2023-01-29T13:20:11.293Z,49.33
2023-01-29T13:21:42.603Z,49.23
2023-01-29T13:23:13.959Z,50.90
2023-01-29T13:24:55.501Z,51.27
2023-01-29T13:26:34.864Z,49.14
2023-01-29T13:28:06.235Z,49.08
2023-01-29T13:29:37.834Z,44.85
2023-01-29T13:31:09.168Z,50.55
2023-01-29T13:32:40.820Z,48.74
2023-01-29T13:34:12.012Z,49.64
2023-01-29T13:35:43.688Z,49.05
2023-01-29T13:37:14.861Z,49.24
2023-01-29T13:38:46.095Z,48.63
2023-01-29T13:40:17.500Z,49.62
2023-01-29T13:41:48.910Z,47.45
2023-01-29T13:43:20.645Z,52.07
2023-01-29T13:44:52.182Z,50.01
2023-01-29T13:46:23.545Z,49.11
2023-01-29T13:47:54.891Z,47.05
2023-01-29T13:49:26.204Z,48.43
2023-01-29T13:50:58.026Z,47.29
2023-01-29T13:52:29.458Z,45.54
2023-01-29T13:54:00.771Z,43.75
2023-01-29T13:55:32.354Z,45.26
2023-01-29T13:57:03.682Z,40.37
2023-01-29T13:58:35.001Z,38.04
2023-01-29T14:00:06.391Z,32.68
2023-01-29T14:01:37.888Z,34.38
2023-01-29T14:03:09.021Z,34.72
2023-01-29T14:04:40.358Z,41.46
2023-01-29T14:06:11.720Z,36.60
2023-01-29T14:07:43.023Z,40.47
2023-01-29T14:09:14.739Z,45.95
2023-01-29T14:10:46.266Z,43.19
2023-01-29T14:12:17.587Z,39.60
2023-01-29T14:13:48.891Z,38.26
2023-01-29T14:15:25.493Z,45.94
2023-01-29T14:16:57.241Z,42.31
2023-01-29T14:18:30.075Z,40.90
2023-01-29T14:20:01.585Z,42.69
2023-01-29T14:21:32.928Z,40.24
2023-01-29T14:23:04.281Z,41.13
2023-01-29T14:24:36.193Z,38.27
2023-01-29T14:26:07.792Z,31.65
2023-01-29T14:27:39.233Z,40.51
2023-01-29T14:29:10.932Z,41.46
2023-01-29T14:30:43.049Z,41.53
2023-01-29T14:32:14.317Z,43.02
2023-01-29T14:33:45.496Z,43.66
2023-01-29T14:35:17.226Z,44.50
2023-01-29T14:36:48.785Z,41.04
2023-01-29T14:38:20.193Z,33.48
2023-01-29T14:39:51.434Z,40.38
2023-01-29T14:41:22.756Z,37.76
2023-01-29T14:42:54.052Z,36.13
2023-01-29T14:44:25.591Z,37.60
2023-01-29T14:45:57.116Z,38.02
2023-01-29T14:47:28.421Z,40.10
2023-01-29T14:49:00.187Z,36.72
2023-01-29T14:50:31.849Z,38.24
2023-01-29T14:52:03.100Z,37.76
2023-01-29T14:53:34.454Z,35.99
2023-01-29T14:55:05.911Z,36.71
2023-01-29T14:56:37.550Z,37.69
2023-01-29T14:58:08.860Z,34.09
2023-01-29T14:59:40.061Z,37.27
2023-01-29T15:01:12.223Z,35.87
2023-01-29T15:02:43.751Z,37.53
2023-01-29T15:04:15.235Z,36.25
2023-01-29T15:05:46.455Z,36.28
2023-01-29T15:07:18.035Z,32.23
2023-01-29T15:08:49.395Z,37.39
2023-01-29T15:10:22.762Z,35.70
2023-01-29T15:11:54.632Z,36.75
2023-01-29T15:13:26.007Z,35.05
2023-01-29T15:14:57.506Z,34.04
2023-01-29T15:16:29.021Z,31.52
2023-01-29T15:18:10.454Z,33.59
2023-01-29T15:19:41.810Z,33.89
2023-01-29T15:21:13.215Z,33.81
2023-01-29T15:23:05.091Z,34.48
2023-01-29T15:24:36.383Z,32.81
2023-01-29T15:26:07.753Z,33.71
2023-01-29T15:27:40.503Z,32.33
2023-01-29T15:29:13.598Z,31.64
2023-01-29T15:30:45.240Z,27.83
2023-01-29T15:32:21.764Z,26.39
2023-01-29T15:33:53.855Z,27.84
2023-01-29T15:35:25.207Z,22.99
2023-01-29T15:36:56.720Z,28.84
2023-01-29T15:38:33.133Z,29.73
2023-01-29T15:40:04.327Z,30.79
2023-01-29T15:41:35.747Z,32.47
2023-01-29T15:43:06.963Z,25.39
2023-01-29T15:44:38.305Z,25.94
2023-01-29T15:46:09.621Z,32.14
2023-01-29T15:47:40.999Z,30.48
2023-01-29T15:49:12.779Z,22.26
2023-01-29T15:50:44.376Z,20.12
2023-01-29T15:52:16.035Z,24.62
2023-01-29T15:53:47.450Z,29.80
2023-01-29T15:55:19.325Z,31.14
2023-01-29T15:56:51.302Z,26.54
2023-01-29T15:58:22.621Z,30.85
2023-01-29T15:59:54.155Z,24.59
2023-01-29T16:01:35.442Z,29.40
2023-01-29T16:03:12.259Z,30.03
2023-01-29T16:04:43.451Z,29.49
2023-01-29T16:06:14.844Z,33.48
2023-01-29T16:07:56.582Z,28.40
2023-01-29T16:09:28.056Z,30.30
2023-01-29T16:10:59.507Z,30.00
2023-01-29T16:12:30.889Z,31.81
2023-01-29T16:14:02.127Z,30.11
2023-01-29T16:15:43.799Z,31.83
2023-01-29T16:17:15.396Z,33.38
2023-01-29T16:18:58.907Z,33.32
2023-01-29T16:20:30.633Z,27.93
2023-01-29T16:22:01.939Z,30.70
2023-01-29T16:23:33.353Z,28.27
2023-01-29T16:25:04.564Z,31.29
2023-01-29T16:26:35.869Z,25.45
2023-01-29T16:28:07.212Z,29.13
2023-01-29T16:29:38.646Z,31.40
2023-01-29T16:31:10.007Z,35.17
2023-01-29T16:32:41.584Z,30.71
2023-01-29T16:34:12.809Z,32.26
2023-01-29T16:35:44.192Z,33.26
2023-01-29T16:37:15.838Z,25.18
2023-01-29T16:38:47.588Z,35.25
2023-01-29T16:40:18.869Z,35.14
2023-01-29T16:41:50.533Z,36.10
2023-01-29T16:43:22.835Z,34.76
2023-01-29T16:44:54.375Z,32.83
2023-01-29T16:46:25.606Z,32.95
2023-01-29T16:47:56.923Z,33.72
2023-01-29T16:49:28.163Z,39.68
2023-01-29T16:51:14.672Z,39.18
2023-01-29T16:52:51.396Z,36.09
2023-01-29T16:54:22.739Z,37.77
2023-01-29T16:55:54.227Z,34.98
2023-01-29T16:57:25.504Z,38.83
2023-01-29T16:58:56.933Z,36.66
2023-01-29T17:00:28.724Z,38.98
2023-01-29T17:02:00.035Z,36.33
2023-01-29T17:03:31.364Z,37.23
2023-01-29T17:05:02.672Z,36.99
2023-01-29T17:06:34.319Z,36.08
2023-01-29T17:08:05.662Z,35.52
2023-01-29T17:09:37.170Z,32.09
2023-01-29T17:11:08.632Z,38.18
2023-01-29T17:12:40.200Z,37.13
2023-01-29T17:14:11.558Z,33.11
2023-01-29T17:15:43.026Z,35.24
2023-01-29T17:17:15.041Z,37.52
2023-01-29T17:18:46.600Z,39.07
2023-01-29T17:20:18.065Z,33.13
2023-01-29T17:21:49.531Z,39.41
2023-01-29T17:23:21.103Z,41.05
2023-01-29T17:24:52.398Z,34.56
2023-01-29T17:26:23.888Z,40.26
2023-01-29T17:27:55.255Z,36.27
2023-01-29T17:29:26.686Z,34.13
2023-01-29T17:31:06.198Z,39.16
2023-01-29T17:32:44.686Z,43.58
2023-01-29T17:34:16.855Z,39.00
2023-01-29T17:35:48.232Z,38.80
2023-01-29T17:37:19.942Z,40.72
2023-01-29T17:38:51.674Z,40.30
2023-01-29T17:41:00.824Z,42.90
2023-01-29T17:42:37.244Z,42.92
2023-01-29T17:44:37.203Z,40.55
2023-01-29T17:46:08.561Z,40.58
2023-01-29T17:47:39.830Z,39.74
2023-01-29T17:49:11.033Z,40.78
2023-01-29T17:50:42.372Z,41.05
2023-01-29T17:52:13.728Z,39.84
2023-01-29T17:53:50.177Z,42.17
2023-01-29T17:55:21.397Z,41.38
2023-01-29T17:56:53.048Z,37.79
2023-01-29T17:58:29.321Z,41.97
2023-01-29T18:00:00.745Z,39.56
2023-01-29T18:01:36.973Z,35.78
2023-01-29T18:03:08.244Z,39.00
2023-01-29T18:04:39.503Z,41.20
2023-01-29T18:06:15.816Z,41.11
2023-01-29T18:07:46.994Z,40.27
2023-01-29T18:09:18.435Z,40.52
2023-01-29T18:10:49.750Z,38.54
2023-01-29T18:12:20.936Z,38.18
2023-01-29T18:13:52.189Z,34.92
2023-01-29T18:15:23.780Z,38.07
2023-01-29T18:16:57.323Z,40.90
2023-01-29T18:18:29.334Z,39.68
2023-01-29T18:20:00.660Z,40.99
2023-01-29T18:21:32.066Z,39.91
2023-01-29T18:23:03.259Z,40.80
2023-01-29T18:24:34.688Z,39.26
2023-01-29T18:26:06.185Z,38.34
2023-01-29T18:27:37.467Z,39.55
2023-01-29T18:29:08.739Z,41.51
2023-01-29T18:30:40.210Z,41.32
2023-01-29T18:32:11.495Z,39.83
2023-01-29T18:33:43.108Z,36.01
2023-01-29T18:35:36.719Z,40.02
2023-01-29T18:37:08.571Z,41.72
2023-01-29T18:38:40.026Z,42.22
2023-01-29T18:40:17.321Z,37.31
2023-01-29T18:41:49.606Z,43.33
2023-01-29T18:43:21.982Z,42.79
2023-01-29T18:44:53.751Z,40.72
2023-01-29T18:48:32.085Z,42.60
2023-01-29T18:50:03.928Z,42.72
2023-01-29T18:51:35.993Z,40.22
2023-01-29T18:53:07.653Z,41.01
2023-01-29T18:54:39.173Z,39.47
2023-01-29T18:56:10.848Z,35.08
2023-01-29T18:58:27.426Z,37.93
2023-01-29T19:00:06.561Z,41.66
2023-01-29T19:01:38.681Z,39.57
2023-01-29T19:03:11.190Z,39.74
2023-01-29T19:04:42.885Z,39.03
2023-01-29T19:06:14.271Z,37.05
2023-01-29T19:07:45.707Z,32.50
2023-01-29T19:09:22.042Z,37.72
2023-01-29T19:11:16.665Z,33.71
2023-01-29T19:12:48.717Z,35.80
2023-01-29T19:14:25.212Z,34.62
2023-01-29T19:16:09.908Z,37.22
2023-01-29T19:17:41.240Z,33.81
2023-01-29T19:19:12.619Z,37.02
2023-01-29T19:20:44.044Z,37.35
2023-01-29T19:22:41.852Z,37.63
2023-01-29T19:24:13.492Z,36.54
2023-01-29T19:25:45.541Z,36.46
2023-01-29T19:27:17.405Z,37.32
2023-01-29T19:28:49.076Z,35.46
2023-01-29T19:30:20.415Z,38.74
2023-01-29T19:32:32.687Z,37.80
2023-01-29T19:34:04.060Z,34.21
2023-01-29T19:35:35.536Z,33.03
2023-01-29T19:37:06.773Z,35.51
2023-01-29T19:38:59.489Z,35.94
2023-01-29T19:40:30.732Z,31.80
2023-01-29T19:42:02.222Z,37.61
2023-01-29T19:43:33.769Z,39.37
2023-01-29T19:45:05.876Z,39.37
2023-01-29T19:46:37.433Z,34.27
2023-01-29T19:48:33.908Z,36.20
2023-01-29T19:50:05.319Z,32.90
2023-01-29T19:52:11.478Z,35.21
2023-01-29T19:53:43.565Z,37.93
2023-01-29T19:55:15.773Z,38.12
2023-01-29T19:56:47.840Z,31.04
2023-01-29T19:58:19.911Z,32.60
2023-01-29T19:59:56.675Z,32.92
2023-01-29T20:01:33.404Z,30.92
2023-01-29T20:03:15.039Z,36.37
2023-01-29T20:04:47.064Z,36.84